createdAt,value
2024-02-10T00:01:29.235Z,96233.19
2024-02-10T00:03:58.183Z,96238.88
2024-02-10T00:06:25.242Z,96242.63
2024-02-10T00:08:52.306Z,96235.25
2024-02-10T00:11:19.209Z,96234.34
2024-02-10T00:13:46.159Z,96236.78
2024-02-10T00:16:13.160Z,96233.38
2024-02-10T00:18:42.306Z,96244.56
2024-02-10T00:21:09.503Z,96241.16
2024-02-10T00:23:36.513Z,96238.06
2024-02-10T00:26:05.753Z,96255.94
2024-02-10T00:28:36.559Z,96248.66
2024-02-10T00:31:03.601Z,96258.44
2024-02-10T00:33:32.158Z,96256.63
2024-02-10T00:35:59.209Z,96250.37
2024-02-10T00:38:26.192Z,96250.13
2024-02-10T00:40:53.263Z,96252.97
2024-02-10T00:43:20.924Z,96254.06
2024-02-10T00:45:48.599Z,96228.91
2024-02-10T00:48:16.004Z,96239.25
2024-02-10T00:50:43.983Z,96248.06
2024-02-10T00:53:10.983Z,96248.53
2024-02-10T00:55:37.944Z,96235.25
2024-02-10T00:58:07.751Z,96236.31
2024-02-10T01:00:35.679Z,96226.13
2024-02-10T01:03:03.892Z,96228.00
2024-02-10T01:05:31.622Z,96219.56
2024-02-10T01:08:01.174Z,96228.81
2024-02-10T01:10:32.362Z,96214.69
2024-02-10T01:13:04.926Z,96207.56
2024-02-10T01:15:34.056Z,96218.09
2024-02-10T01:18:05.594Z,96221.16
2024-02-10T01:20:32.578Z,96221.84
2024-02-10T01:23:01.108Z,96197.41
2024-02-10T01:25:32.015Z,96209.50
2024-02-10T01:27:59.942Z,96204.34
2024-02-10T01:30:27.998Z,96192.72
2024-02-10T01:33:00.167Z,96205.50
2024-02-10T01:35:27.590Z,96183.06
2024-02-10T01:37:54.558Z,96186.09
2024-02-10T01:40:21.510Z,96189.63
2024-02-10T01:42:48.409Z,96183.28
2024-02-10T01:45:15.890Z,96185.81
2024-02-10T01:47:46.945Z,96179.78
2024-02-10T01:50:14.778Z,96179.41
2024-02-10T01:52:42.147Z,96183.81
2024-02-10T01:55:11.116Z,96171.56
2024-02-10T01:57:38.570Z,96169.81
2024-02-10T02:00:06.857Z,96161.47
2024-02-10T02:02:36.747Z,96171.78
2024-02-10T02:05:06.808Z,96157.69
2024-02-10T02:07:34.252Z,96158.66
2024-02-10T02:10:02.557Z,96155.31
2024-02-10T02:12:30.122Z,96148.56
2024-02-10T02:14:58.859Z,96143.03
2024-02-10T02:17:26.563Z,96121.78
2024-02-10T02:19:53.937Z,96139.03
2024-02-10T02:22:21.502Z,96131.72
2024-02-10T02:24:48.984Z,96130.66
2024-02-10T02:27:16.698Z,96109.53
2024-02-10T02:29:43.870Z,96115.06
2024-02-10T02:32:12.183Z,96127.63
2024-02-10T02:34:39.763Z,96124.00
2024-02-10T02:37:08.635Z,96122.03
2024-02-10T02:39:37.523Z,96125.56
2024-02-10T02:42:07.021Z,96131.75
2024-02-10T02:44:34.346Z,96137.94
2024-02-10T02:47:06.994Z,96129.87
2024-02-10T02:49:39.145Z,96142.84
2024-02-10T02:52:09.107Z,96129.03
2024-02-10T02:54:36.938Z,96124.94
2024-02-10T02:57:06.241Z,96134.50
2024-02-10T02:59:33.130Z,96111.47
2024-02-10T03:02:03.944Z,96137.34
2024-02-10T03:04:30.973Z,96137.34
2024-02-10T03:06:58.993Z,96120.34
2024-02-10T03:09:25.914Z,96113.06
2024-02-10T03:11:52.799Z,96106.81
2024-02-10T03:14:19.734Z,96121.75
2024-02-10T03:16:46.950Z,96108.88
2024-02-10T03:19:13.940Z,96100.41
2024-02-10T03:21:40.777Z,96095.59
2024-02-10T03:24:07.526Z,96102.53
2024-02-10T03:26:36.982Z,96098.06
2024-02-10T03:29:04.067Z,96107.69
2024-02-10T03:31:31.331Z,96126.63
2024-02-10T03:33:58.528Z,96122.66
2024-02-10T03:36:28.649Z,96119.09
2024-02-10T03:38:56.102Z,96120.63
2024-02-10T03:41:23.177Z,96122.88
2024-02-10T03:43:50.186Z,96129.09
2024-02-10T03:46:23.149Z,96125.69
2024-02-10T03:48:51.502Z,96126.00
2024-02-10T03:51:18.405Z,96119.66
2024-02-10T03:53:45.223Z,96122.84
2024-02-10T03:56:12.027Z,96126.03
2024-02-10T03:58:42.928Z,96120.84
2024-02-10T04:01:16.804Z,96123.97
2024-02-10T04:03:47.362Z,96122.44
2024-02-10T04:06:17.701Z,96125.75
2024-02-10T04:08:48.429Z,96115.00
2024-02-10T04:11:18.439Z,96116.19
2024-02-10T04:13:46.122Z,96109.13
2024-02-10T04:16:14.242Z,96120.75
2024-02-10T04:18:42.383Z,96129.06
2024-02-10T04:21:10.258Z,96130.03
2024-02-10T04:23:40.556Z,96128.06
2024-02-10T04:26:07.442Z,96135.44
2024-02-10T04:28:37.508Z,96138.84
2024-02-10T04:31:06.734Z,96135.63
2024-02-10T04:33:33.682Z,96144.87
2024-02-10T04:36:00.650Z,96137.75
2024-02-10T04:38:27.650Z,96130.13
2024-02-10T04:40:55.027Z,96127.78
2024-02-10T04:43:22.146Z,96126.06
2024-02-10T04:45:50.565Z,96127.44
2024-02-10T04:48:21.683Z,96135.09
2024-02-10T04:50:48.966Z,96131.00
2024-02-10T04:53:18.932Z,96129.84
2024-02-10T04:55:46.293Z,96126.09
2024-02-10T04:58:14.878Z,96117.16
2024-02-10T05:00:42.573Z,96100.72
2024-02-10T05:03:09.835Z,96093.78
2024-02-10T05:05:36.985Z,96088.88
2024-02-10T05:08:04.179Z,96082.06
2024-02-10T05:10:31.193Z,96074.09
2024-02-10T05:12:58.481Z,96068.47
2024-02-10T05:15:27.047Z,96064.25
2024-02-10T05:17:55.007Z,96064.25
2024-02-10T05:20:24.075Z,96052.75
2024-02-10T05:22:52.731Z,96058.59
2024-02-10T05:25:21.248Z,96058.72
2024-02-10T05:27:51.839Z,96051.44
2024-02-10T05:30:25.938Z,96054.25
2024-02-10T05:32:54.333Z,96063.31
2024-02-10T05:35:21.705Z,96072.00
2024-02-10T05:37:55.315Z,96087.34
2024-02-10T05:40:23.225Z,96082.66
2024-02-10T05:42:54.195Z,96077.16
2024-02-10T05:45:21.808Z,96064.94
2024-02-10T05:47:52.419Z,96059.91
2024-02-10T05:50:24.333Z,96041.09
2024-02-10T05:52:52.881Z,96056.38
2024-02-10T05:55:22.995Z,96053.19
2024-02-10T05:57:50.051Z,96071.28
2024-02-10T06:00:17.624Z,96069.00
2024-02-10T06:02:44.502Z,96068.56
2024-02-10T06:05:15.526Z,96067.63
2024-02-10T06:07:43.652Z,96078.19
2024-02-10T06:10:14.048Z,96084.47
2024-02-10T06:12:50.180Z,96082.63
2024-02-10T06:15:20.623Z,96090.19
2024-02-10T06:17:50.222Z,96089.69
2024-02-10T06:20:17.313Z,96092.03
2024-02-10T06:22:49.540Z,96097.91
2024-02-10T06:25:17.092Z,96099.06
2024-02-10T06:27:47.132Z,96092.13
2024-02-10T06:30:18.551Z,96087.06
2024-02-10T06:32:46.051Z,96093.19
2024-02-10T06:35:13.964Z,96093.69
2024-02-10T06:37:52.891Z,96085.69
2024-02-10T06:40:20.120Z,96094.59
2024-02-10T06:42:51.982Z,96105.28
2024-02-10T06:45:23.399Z,96116.69
2024-02-10T06:47:53.902Z,96120.63
2024-02-10T06:50:30.057Z,96126.28
2024-02-10T06:53:01.699Z,96134.47
2024-02-10T06:55:29.859Z,96141.59
2024-02-10T06:57:57.472Z,96142.69
2024-02-10T07:00:24.654Z,96143.81
2024-02-10T07:02:53.048Z,96147.00
2024-02-10T07:05:21.322Z,96144.06
2024-02-10T07:07:50.105Z,96142.25
2024-02-10T07:10:21.790Z,96147.88
2024-02-10T07:12:50.594Z,96155.06
2024-02-10T07:15:19.983Z,96153.94
2024-02-10T07:17:48.927Z,96162.22
2024-02-10T07:20:26.908Z,96162.72
2024-02-10T07:22:57.812Z,96162.38
2024-02-10T07:25:26.952Z,96164.16
2024-02-10T07:27:54.689Z,96171.34
2024-02-10T07:30:22.077Z,96173.50
2024-02-10T07:32:49.522Z,96172.38
2024-02-10T07:35:17.836Z,96172.22
2024-02-10T07:37:46.244Z,96173.75
2024-02-10T07:40:13.483Z,96168.94
2024-02-10T07:42:40.687Z,96174.97
2024-02-10T07:45:08.041Z,96182.22
2024-02-10T07:47:35.220Z,96176.63
2024-02-10T07:50:04.556Z,96174.16
2024-02-10T07:52:33.113Z,96180.16
2024-02-10T07:55:00.481Z,96170.88
2024-02-10T07:57:27.907Z,96169.22
2024-02-10T07:59:56.008Z,96166.50
2024-02-10T08:02:26.814Z,96165.97
2024-02-10T08:04:59.202Z,96152.69
2024-02-10T08:07:31.714Z,96161.53
2024-02-10T08:09:59.703Z,96158.63
2024-02-10T08:12:27.817Z,96157.72
2024-02-10T08:14:56.077Z,96159.41
2024-02-10T08:17:25.550Z,96157.44
2024-02-10T08:19:52.729Z,96170.88
2024-02-10T08:22:20.327Z,96167.59
2024-02-10T08:24:48.731Z,96175.13
2024-02-10T08:27:16.502Z,96180.97
2024-02-10T08:29:44.069Z,96171.31
2024-02-10T08:32:17.537Z,96174.03
2024-02-10T08:34:44.657Z,96167.31
2024-02-10T08:37:13.628Z,96185.88
2024-02-10T08:39:41.541Z,96170.22
2024-02-10T08:42:11.279Z,96175.06
2024-02-10T08:44:38.473Z,96169.09
2024-02-10T08:47:07.659Z,96174.63
2024-02-10T08:49:39.637Z,96176.06
2024-02-10T08:52:16.493Z,96159.37
2024-02-10T08:54:44.774Z,96166.34
2024-02-10T08:57:11.802Z,96159.34
2024-02-10T08:59:43.350Z,96152.25
2024-02-10T09:02:10.953Z,96178.12
2024-02-10T09:04:41.694Z,96173.22
2024-02-10T09:07:09.263Z,96183.59
2024-02-10T09:09:36.804Z,96171.09
2024-02-10T09:12:04.419Z,96167.09
2024-02-10T09:14:31.400Z,96167.72
2024-02-10T09:16:58.590Z,96173.84
2024-02-10T09:19:25.657Z,96178.66
2024-02-10T09:21:59.588Z,96172.63
2024-02-10T09:24:27.925Z,96169.88
2024-02-10T09:26:55.931Z,96175.13
2024-02-10T09:29:22.998Z,96176.38
2024-02-10T09:31:54.068Z,96166.19
2024-02-10T09:34:23.797Z,96172.16
2024-02-10T09:36:50.732Z,96180.44
2024-02-10T09:39:17.565Z,96170.09
2024-02-10T09:41:44.625Z,96155.66
2024-02-10T09:44:12.769Z,96169.94
2024-02-10T09:46:40.344Z,96170.75
2024-02-10T09:49:11.311Z,96165.22
2024-02-10T09:51:45.277Z,96178.84
2024-02-10T09:54:15.260Z,96162.88
2024-02-10T09:56:44.541Z,96167.53
2024-02-10T09:59:15.861Z,96168.88
2024-02-10T10:01:42.932Z,96165.34
2024-02-10T10:04:13.812Z,96166.25
2024-02-10T10:06:44.984Z,96165.03
2024-02-10T10:09:19.576Z,96162.75
2024-02-10T10:11:47.379Z,96166.25
2024-02-10T10:14:18.493Z,96163.91
2024-02-10T10:16:59.394Z,96168.69
2024-02-10T10:19:31.304Z,96168.28
2024-02-10T10:21:59.510Z,96157.06
2024-02-10T10:24:27.590Z,96170.59
2024-02-10T10:26:55.662Z,96159.63
2024-02-10T10:29:23.254Z,96151.16
2024-02-10T10:31:50.996Z,96140.28
2024-02-10T10:34:21.532Z,96143.03
2024-02-10T10:36:52.181Z,96140.41
2024-02-10T10:39:19.419Z,96135.09
2024-02-10T10:41:46.958Z,96133.97
2024-02-10T10:44:18.299Z,96129.78
2024-02-10T10:46:46.904Z,96127.22
2024-02-10T10:49:15.655Z,96125.81
2024-02-10T10:52:00.867Z,96131.28
2024-02-10T10:54:35.320Z,96127.53
2024-02-10T10:57:07.141Z,96111.38
2024-02-10T10:59:38.420Z,96127.19
2024-02-10T11:02:08.906Z,96098.66
2024-02-10T11:04:36.308Z,96107.25
2024-02-10T11:07:14.837Z,96110.53
2024-02-10T11:09:47.791Z,96103.12
2024-02-10T11:12:17.882Z,96097.66
2024-02-10T11:14:55.321Z,96098.53
2024-02-10T11:17:22.289Z,96106.06
2024-02-10T11:20:04.986Z,96102.31
2024-02-10T11:22:38.947Z,96093.56
2024-02-10T11:25:17.674Z,96096.53
2024-02-10T11:27:48.319Z,96090.72
2024-02-10T11:30:15.303Z,96093.59
2024-02-10T11:32:50.564Z,96098.28
2024-02-10T11:35:17.762Z,96099.16
2024-02-10T11:37:44.884Z,96101.53
2024-02-10T11:40:17.122Z,96106.13
2024-02-10T11:42:44.906Z,96116.50
2024-02-10T11:45:12.318Z,96103.91
2024-02-10T11:47:39.347Z,96109.94
2024-02-10T11:50:07.978Z,96112.19
2024-02-10T11:52:37.694Z,96111.94
2024-02-10T11:55:05.654Z,96113.81
2024-02-10T11:57:32.577Z,96092.78
2024-02-10T11:59:59.612Z,96091.72
2024-02-10T12:02:27.992Z,96111.03
2024-02-10T12:04:55.197Z,96116.09
2024-02-10T12:07:22.385Z,96107.81
2024-02-10T12:09:49.385Z,96109.44
2024-02-10T12:12:17.281Z,96104.72
2024-02-10T12:14:44.338Z,96106.75
2024-02-10T12:17:11.288Z,96111.91
2024-02-10T12:19:41.862Z,96096.44
2024-02-10T12:22:11.002Z,96104.47
2024-02-10T12:24:39.106Z,96097.87
2024-02-10T12:27:05.888Z,96095.88
2024-02-10T12:29:32.816Z,96086.69
2024-02-10T12:31:59.713Z,96096.19
2024-02-10T12:34:27.017Z,96094.12
2024-02-10T12:36:53.901Z,96094.22
2024-02-10T12:39:21.368Z,96093.09
2024-02-10T12:41:48.349Z,96088.53
2024-02-10T12:44:15.231Z,96076.63
2024-02-10T12:46:42.158Z,96075.75
2024-02-10T12:49:09.929Z,96084.59
2024-02-10T12:51:37.015Z,96080.84
2024-02-10T12:54:03.945Z,96075.28
2024-02-10T12:56:31.112Z,96062.88
2024-02-10T12:58:58.623Z,96087.72
2024-02-10T13:01:27.144Z,96081.00
2024-02-10T13:03:54.191Z,96077.22
2024-02-10T13:06:21.651Z,96070.84
2024-02-10T13:08:50.813Z,96073.91
2024-02-10T13:11:18.135Z,96073.81
2024-02-10T13:13:46.011Z,96062.28
2024-02-10T13:16:13.160Z,96058.34
2024-02-10T13:18:45.382Z,96065.53
2024-02-10T13:21:18.041Z,96070.44
2024-02-10T13:23:45.683Z,96071.41
2024-02-10T13:26:15.600Z,96061.75
2024-02-10T13:28:44.641Z,96072.97
2024-02-10T13:31:12.013Z,96057.47
2024-02-10T13:33:42.274Z,96066.44
2024-02-10T13:36:17.311Z,96069.53
2024-02-10T13:39:02.731Z,96068.41
2024-02-10T13:41:48.025Z,96065.63
2024-02-10T13:44:33.326Z,96050.47
2024-02-10T13:47:21.978Z,96048.62
2024-02-10T13:50:07.490Z,96051.72
2024-02-10T13:52:53.229Z,96039.53
2024-02-10T13:55:38.969Z,96042.97
2024-02-10T13:58:12.163Z,96050.12
2024-02-10T14:00:42.249Z,96044.13
2024-02-10T14:03:13.225Z,96057.38
2024-02-10T14:05:53.876Z,96047.53
2024-02-10T14:08:36.717Z,96046.00
2024-02-10T14:11:21.787Z,96056.28
2024-02-10T14:13:53.343Z,96063.22
2024-02-10T14:16:29.654Z,96066.06
2024-02-10T14:19:03.253Z,96071.38
2024-02-10T14:21:40.199Z,96052.13
2024-02-10T14:24:07.711Z,96050.00
2024-02-10T14:26:53.446Z,96047.38
2024-02-10T14:29:37.906Z,96050.50
2024-02-10T14:32:12.021Z,96050.31
2024-02-10T14:34:59.804Z,96062.91
2024-02-10T14:37:45.946Z,96064.44
2024-02-10T14:40:20.772Z,96066.50
2024-02-10T14:42:48.890Z,96067.31
2024-02-10T14:45:20.536Z,96062.28
2024-02-10T14:47:47.445Z,96071.13
2024-02-10T14:50:17.862Z,96069.25
2024-02-10T14:52:45.927Z,96073.59
2024-02-10T14:55:15.783Z,96073.81
2024-02-10T14:57:44.000Z,96069.94
2024-02-10T15:00:14.164Z,96076.06
2024-02-10T15:02:41.593Z,96067.31
2024-02-10T15:05:11.664Z,96072.19
2024-02-10T15:07:38.703Z,96073.72
2024-02-10T15:10:06.075Z,96070.63
2024-02-10T15:12:32.890Z,96058.50
2024-02-10T15:15:00.275Z,96060.84
2024-02-10T15:17:27.445Z,96051.22
2024-02-10T15:19:54.539Z,96056.56
2024-02-10T15:22:21.481Z,96044.44
2024-02-10T15:24:48.400Z,96049.25
2024-02-10T15:27:16.831Z,96053.41
2024-02-10T15:29:43.765Z,96052.22
2024-02-10T15:32:11.195Z,96050.81
2024-02-10T15:34:47.831Z,96045.59
2024-02-10T15:37:18.710Z,96048.09
2024-02-10T15:39:45.517Z,96053.00
2024-02-10T15:42:12.655Z,96049.78
2024-02-10T15:44:39.517Z,96045.59
2024-02-10T15:47:06.428Z,96052.09
2024-02-10T15:49:35.428Z,96060.37
2024-02-10T15:52:02.239Z,96054.13
2024-02-10T15:54:29.075Z,96050.88
2024-02-10T15:56:59.634Z,96062.34
2024-02-10T15:59:27.031Z,96060.84
2024-02-10T16:01:55.613Z,96070.41
2024-02-10T16:04:23.462Z,96065.59
2024-02-10T16:06:51.206Z,96060.06
2024-02-10T16:09:21.108Z,96057.41
2024-02-10T16:11:48.024Z,96051.13
2024-02-10T16:14:15.050Z,96066.84
2024-02-10T16:16:42.052Z,96062.28
2024-02-10T16:19:09.148Z,96065.81
2024-02-10T16:21:36.089Z,96062.63
2024-02-10T16:24:06.765Z,96063.81
2024-02-10T16:26:34.312Z,96067.37
2024-02-10T16:29:01.247Z,96065.94
2024-02-10T16:31:28.174Z,96065.75
2024-02-10T16:33:59.543Z,96064.69
2024-02-10T16:36:30.870Z,96061.44
2024-02-10T16:38:58.249Z,96063.94
2024-02-10T16:41:27.843Z,96057.84
2024-02-10T16:43:54.802Z,96070.03
2024-02-10T16:46:23.627Z,96063.91
2024-02-10T16:48:51.515Z,96069.47
2024-02-10T16:51:34.433Z,96069.00
2024-02-10T16:54:07.212Z,96066.94
2024-02-10T16:56:37.555Z,96072.06
2024-02-10T16:59:04.897Z,96071.50
2024-02-10T17:01:32.401Z,96078.28
2024-02-10T17:03:59.411Z,96079.09
2024-02-10T17:06:26.323Z,96081.72
2024-02-10T17:08:53.132Z,96083.91
2024-02-10T17:11:19.989Z,96075.84
2024-02-10T17:13:48.075Z,96074.56
2024-02-10T17:16:16.894Z,96079.47
2024-02-10T17:18:43.905Z,96085.94
2024-02-10T17:21:10.821Z,96086.25
2024-02-10T17:23:37.616Z,96094.12
2024-02-10T17:26:08.481Z,96090.31
2024-02-10T17:28:35.506Z,96095.44
2024-02-10T17:31:02.454Z,96083.69
2024-02-10T17:33:29.310Z,96074.59
2024-02-10T17:35:56.288Z,96085.84
2024-02-10T17:38:27.123Z,96093.78
2024-02-10T17:40:57.185Z,96089.72
2024-02-10T17:43:25.249Z,96081.06
2024-02-10T17:45:53.888Z,96091.87
2024-02-10T17:48:25.084Z,96084.31
2024-02-10T17:50:54.133Z,96085.22
2024-02-10T17:53:24.287Z,96087.47
2024-02-10T17:55:57.377Z,96089.56
2024-02-10T17:58:30.378Z,96086.75
2024-02-10T18:00:57.812Z,96091.69
2024-02-10T18:03:26.278Z,96085.59
2024-02-10T18:05:57.778Z,96085.84
2024-02-10T18:08:25.188Z,96091.72
2024-02-10T18:10:52.331Z,96088.19
2024-02-10T18:13:21.418Z,96091.91
2024-02-10T18:15:48.423Z,96094.91
2024-02-10T18:18:15.474Z,96081.53
2024-02-10T18:20:42.443Z,96095.38
2024-02-10T18:23:11.591Z,96090.06
2024-02-10T18:25:43.583Z,96093.75
2024-02-10T18:28:14.682Z,96097.47
2024-02-10T18:30:46.432Z,96096.19
2024-02-10T18:33:16.200Z,96099.03
2024-02-10T18:35:44.086Z,96101.28
2024-02-10T18:38:13.152Z,96103.31
2024-02-10T18:40:40.398Z,96086.16
2024-02-10T18:43:07.517Z,96092.97
2024-02-10T18:45:35.553Z,96087.50
2024-02-10T18:48:03.556Z,96087.03
2024-02-10T18:50:31.398Z,96086.41
2024-02-10T18:52:58.926Z,96096.09
2024-02-10T18:55:26.538Z,96096.31
2024-02-10T18:57:53.632Z,96085.72
2024-02-10T19:00:21.134Z,96088.38
2024-02-10T19:02:49.560Z,96092.06
2024-02-10T19:05:17.704Z,96088.75
2024-02-10T19:07:45.477Z,96084.47
2024-02-10T19:10:12.547Z,96085.16
2024-02-10T19:12:39.673Z,96090.91
2024-02-10T19:15:11.126Z,96078.75
2024-02-10T19:17:39.080Z,96087.75
2024-02-10T19:20:12.518Z,96087.75
2024-02-10T19:22:40.283Z,96087.31
2024-02-10T19:25:08.170Z,96089.19
2024-02-10T19:27:40.038Z,96095.53
2024-02-10T19:30:11.441Z,96091.87
2024-02-10T19:32:42.838Z,96091.63
2024-02-10T19:35:21.319Z,96098.81
2024-02-10T19:37:49.203Z,96091.25
2024-02-10T19:40:20.647Z,96091.34
2024-02-10T19:42:48.582Z,96093.69
2024-02-10T19:45:17.702Z,96093.97
2024-02-10T19:47:49.644Z,96096.91
2024-02-10T19:50:19.628Z,96101.72
2024-02-10T19:52:47.751Z,96105.78
2024-02-10T19:55:15.795Z,96117.62
2024-02-10T19:57:43.052Z,96114.34
2024-02-10T20:00:16.670Z,96117.97
2024-02-10T20:02:44.740Z,96115.16
2024-02-10T20:05:13.629Z,96110.03
2024-02-10T20:07:42.680Z,96122.03
2024-02-10T20:10:10.441Z,96123.25
2024-02-10T20:12:39.961Z,96113.44
2024-02-10T20:15:07.593Z,96113.34
2024-02-10T20:17:34.585Z,96112.78
2024-02-10T20:20:08.261Z,96118.09
2024-02-10T20:22:35.688Z,96108.25
2024-02-10T20:25:05.795Z,96107.69
2024-02-10T20:27:32.640Z,96108.22
2024-02-10T20:30:00.525Z,96105.87
2024-02-10T20:32:28.068Z,96109.06
2024-02-10T20:34:55.271Z,96109.38
2024-02-10T20:37:22.192Z,96112.44
2024-02-10T20:39:50.790Z,96109.41
2024-02-10T20:42:18.743Z,96107.47
2024-02-10T20:44:48.417Z,96108.13
2024-02-10T20:47:15.943Z,96102.31
2024-02-10T20:49:44.050Z,96101.88
2024-02-10T20:52:12.814Z,96103.22
2024-02-10T20:54:39.615Z,96102.31
2024-02-10T20:57:07.316Z,96095.59
2024-02-10T20:59:34.249Z,96095.34
2024-02-10T21:02:01.170Z,96102.19
2024-02-10T21:04:28.225Z,96097.87
2024-02-10T21:06:55.582Z,96096.06
2024-02-10T21:09:24.995Z,96091.50
2024-02-10T21:11:51.899Z,96085.50
2024-02-10T21:14:18.807Z,96087.81
2024-02-10T21:16:47.718Z,96083.31
2024-02-10T21:19:15.388Z,96082.50
2024-02-10T21:21:43.017Z,96080.28
2024-02-10T21:24:10.108Z,96078.13
2024-02-10T21:26:37.592Z,96065.63
2024-02-10T21:29:07.426Z,96063.72
2024-02-10T21:31:37.719Z,96065.81
2024-02-10T21:34:06.101Z,96063.78
2024-02-10T21:36:35.840Z,96070.75
2024-02-10T21:39:19.444Z,96062.97
2024-02-10T21:41:49.082Z,96057.38
2024-02-10T21:44:16.368Z,96056.00
2024-02-10T21:46:43.496Z,96051.75
2024-02-10T21:49:11.126Z,96052.06
2024-02-10T21:51:38.719Z,96055.94
2024-02-10T21:54:06.793Z,96049.31
2024-02-10T21:56:42.910Z,96033.31
2024-02-10T21:59:12.912Z,96054.00
2024-02-10T22:01:40.431Z,96050.03
2024-02-10T22:04:08.604Z,96045.50
2024-02-10T22:06:35.706Z,96047.53
2024-02-10T22:09:06.112Z,96046.28
2024-02-10T22:11:33.235Z,96038.69
2024-02-10T22:14:00.560Z,96036.50
2024-02-10T22:16:27.627Z,96033.06
2024-02-10T22:18:55.164Z,96037.34
2024-02-10T22:21:23.561Z,96029.13
2024-02-10T22:23:51.428Z,96033.75
2024-02-10T22:26:22.777Z,96016.75
2024-02-10T22:28:49.745Z,96018.12
2024-02-10T22:31:17.388Z,96012.78
2024-02-10T22:33:44.553Z,96006.19
2024-02-10T22:36:12.710Z,96003.69
2024-02-10T22:38:40.051Z,96015.13
2024-02-10T22:41:07.751Z,96004.59
2024-02-10T22:43:34.804Z,95999.87
2024-02-10T22:46:01.866Z,95988.19
2024-02-10T22:48:28.859Z,95994.41
2024-02-10T22:50:55.783Z,95988.31
2024-02-10T22:53:23.625Z,95985.56
2024-02-10T22:55:50.605Z,95978.44
2024-02-10T22:58:17.690Z,95982.72
2024-02-10T23:00:54.661Z,95976.44
2024-02-10T23:03:21.685Z,95973.84
2024-02-10T23:05:51.948Z,95985.00
2024-02-10T23:08:21.399Z,95981.88
2024-02-10T23:10:49.050Z,95974.69
2024-02-10T23:13:22.078Z,95974.81
2024-02-10T23:15:49.630Z,95972.28
2024-02-10T23:18:19.990Z,95965.56
2024-02-10T23:20:48.748Z,95971.03
2024-02-10T23:23:19.275Z,95970.63
2024-02-10T23:25:48.156Z,95965.00
2024-02-10T23:28:18.422Z,95962.47
2024-02-10T23:30:52.757Z,95954.94
2024-02-10T23:33:24.539Z,95959.22
2024-02-10T23:35:52.026Z,95952.50
2024-02-10T23:38:19.096Z,95943.16
2024-02-10T23:40:47.011Z,95944.28
2024-02-10T23:43:14.058Z,95948.00
2024-02-10T23:45:45.327Z,95942.12
2024-02-10T23:48:12.400Z,95941.94
2024-02-10T23:50:39.404Z,95943.06
2024-02-10T23:53:06.486Z,95943.59
2024-02-10T23:55:34.931Z,95942.12
2024-02-10T23:58:02.560Z,95947.50
